Time;durP1;ratioP1;P1;durP2;ratioP2;P2;SDS_P1;SDS_P2;PMS_P1;PMS_P2;Temp;Humidity;BMP_temperature;BMP_pressure;BME280_temperature;BME280_humidity;BME280_pressure;Samples;Min_cycle;Max_cycle;Signal;HPM_P1;HPM_P2
2022/08/09 00:01:32;;;;;;;1.60;1.40;;;18.10;73.50;;;;;;5090865;28;20683;-79
2022/08/09 00:03:59;;;;;;;2.33;1.23;;;18.20;74.10;;;;;;5083364;28;20629;-79
2022/08/09 00:06:26;;;;;;;1.00;1.00;;;18.10;75.00;;;;;;5088923;28;20623;-79
2022/08/09 00:08:54;;;;;;;2.30;1.50;;;18.10;76.90;;;;;;5088435;28;20620;-79
2022/08/09 00:11:21;;;;;;;1.20;1.10;;;18.00;77.20;;;;;;5081965;28;21018;-79
2022/08/09 00:13:48;;;;;;;2.87;1.73;;;18.00;77.80;;;;;;5086765;28;21139;-80
2022/08/09 00:16:15;;;;;;;1.70;1.00;;;18.00;78.80;;;;;;5090963;28;20638;-79
2022/08/09 00:18:42;;;;;;;2.30;1.47;;;17.90;79.70;;;;;;5085937;28;20636;-79
2022/08/09 00:21:09;;;;;;;2.63;1.30;;;17.90;80.30;;;;;;5086428;28;20667;-79
2022/08/09 00:23:37;;;;;;;1.30;1.20;;;17.90;81.40;;;;;;5078665;28;20632;-80
2022/08/09 00:26:06;;;;;;;2.20;1.27;;;17.80;82.30;;;;;;5091575;28;20609;-79
2022/08/09 00:28:33;;;;;;;1.47;1.00;;;17.80;83.70;;;;;;5087894;28;20623;-79
2022/08/09 00:30:59;;;;;;;1.60;1.50;;;17.70;84.70;;;;;;5088867;28;20683;-79
2022/08/09 00:33:26;;;;;;;2.60;1.30;;;17.70;85.40;;;;;;5084435;28;20632;-79
2022/08/09 00:35:53;;;;;;;1.10;1.00;;;17.60;85.90;;;;;;5086350;28;20636;-79
2022/08/09 00:38:21;;;;;;;1.53;1.43;;;17.60;86.50;;;;;;5083842;28;20638;-79
2022/08/09 00:40:48;;;;;;;1.60;1.50;;;17.60;87.10;;;;;;5082981;28;20759;-79
2022/08/09 00:43:16;;;;;;;3.10;1.40;;;17.60;88.20;;;;;;5089119;28;20663;-79
2022/08/09 00:45:43;;;;;;;1.93;1.70;;;17.50;88.90;;;;;;5086526;28;20634;-79
2022/08/09 00:48:10;;;;;;;2.30;1.30;;;17.50;90.20;;;;;;5086909;28;21050;-79
2022/08/09 00:50:37;;;;;;;1.60;1.33;;;17.50;90.30;;;;;;5084874;28;21599;-79
2022/08/09 00:53:05;;;;;;;3.87;1.53;;;17.50;90.60;;;;;;5077687;28;20656;-79
2022/08/09 00:55:32;;;;;;;1.77;1.50;;;17.50;90.70;;;;;;5090807;28;21032;-79
2022/08/09 00:57:58;;;;;;;1.30;1.20;;;17.50;90.80;;;;;;5083955;28;20647;-79
2022/08/09 01:00:27;;;;;;;1.43;1.30;;;17.50;91.40;;;;;;5085849;28;20644;-79
2022/08/09 01:03:03;;;;;;;2.07;1.50;;;17.40;91.20;;;;;;5086834;28;20667;-79
2022/08/09 01:05:36;;;;;;;3.57;1.30;;;17.40;91.60;;;;;;5087556;28;20613;-79
2022/08/09 01:08:11;;;;;;;1.30;1.20;;;17.40;92.00;;;;;;5089975;28;20613;-79
2022/08/09 01:10:47;;;;;;;1.20;1.10;;;17.40;92.20;;;;;;5082220;28;20671;-79
2022/08/09 01:13:24;;;;;;;1.97;1.80;;;17.30;92.70;;;;;;5092397;28;20622;-79
2022/08/09 01:15:55;;;;;;;2.40;1.23;;;17.30;93.70;;;;;;5085730;28;20627;-79
2022/08/09 01:18:26;;;;;;;1.47;1.13;;;17.20;94.10;;;;;;5094398;28;20611;-79
2022/08/09 01:21:07;;;;;;;1.40;1.30;;;17.20;94.30;;;;;;5089472;28;20662;-79
2022/08/09 01:23:45;;;;;;;2.67;1.20;;;17.20;94.70;;;;;;5086054;28;20650;-79
2022/08/09 01:26:32;;;;;;;4.33;1.50;;;17.10;95.70;;;;;;5091999;28;20680;-79
2022/08/09 01:29:00;;;;;;;2.00;1.20;;;17.00;96.10;;;;;;5092643;28;20624;-79
2022/08/09 01:31:30;;;;;;;1.43;1.33;;;17.00;96.00;;;;;;5092243;28;20663;-79
2022/08/09 01:34:00;;;;;;;1.50;1.40;;;17.00;96.40;;;;;;5089290;28;21196;-79
2022/08/09 01:36:29;;;;;;;1.70;1.60;;;17.00;96.80;;;;;;5094788;28;20960;-79
2022/08/09 01:38:58;;;;;;;1.93;1.73;;;17.00;97.30;;;;;;5090159;28;21095;-79
2022/08/09 01:41:29;;;;;;;1.30;1.20;;;17.00;97.90;;;;;;5089172;28;20731;-79
2022/08/09 01:44:00;;;;;;;1.50;1.40;;;16.80;98.30;;;;;;5089824;28;20624;-79
2022/08/09 01:46:29;;;;;;;4.30;1.70;;;16.80;98.70;;;;;;5091060;28;20608;-79
2022/08/09 01:49:01;;;;;;;1.63;1.20;;;16.70;99.30;;;;;;5092097;28;20628;-79
2022/08/09 01:51:30;;;;;;;1.63;1.53;;;16.60;99.90;;;;;;5087554;28;22965;-80
2022/08/09 01:54:00;;;;;;;2.93;1.47;;;16.70;99.90;;;;;;5086280;28;20659;-79
2022/08/09 01:56:28;;;;;;;1.63;1.50;;;16.70;99.90;;;;;;5093666;28;20630;-79
2022/08/09 01:58:58;;;;;;;1.67;1.57;;;16.70;99.90;;;;;;5086035;28;20636;-79
2022/08/09 02:01:28;;;;;;;5.60;1.50;;;16.70;99.90;;;;;;5092322;28;20640;-80
2022/08/09 02:03:57;;;;;;;2.13;1.60;;;16.70;99.90;;;;;;5085877;28;20628;-80
2022/08/09 02:09:09;;;;;;;1.73;1.50;;;16.70;99.90;;;;;;5087433;28;20624;-80
2022/08/09 02:11:36;;;;;;;3.57;1.53;;;16.60;99.90;;;;;;5090527;28;20743;-80
2022/08/09 02:14:06;;;;;;;1.60;1.30;;;16.60;99.90;;;;;;5089612;28;20675;-80
2022/08/09 02:16:36;;;;;;;2.03;1.70;;;16.50;99.90;;;;;;5086432;28;20636;-79
2022/08/09 02:19:05;;;;;;;1.70;1.60;;;16.50;99.90;;;;;;5086811;28;20628;-80
2022/08/09 02:21:37;;;;;;;1.57;1.47;;;16.40;99.90;;;;;;5095189;28;20655;-79
2022/08/09 02:24:09;;;;;;;1.90;1.47;;;16.40;99.90;;;;;;5089367;28;20621;-79
2022/08/09 02:26:37;;;;;;;4.93;1.60;;;16.40;99.90;;;;;;5086790;28;20653;-79
2022/08/09 02:29:18;;;;;;;2.40;1.80;;;16.40;99.90;;;;;;5084708;28;20632;-79
2022/08/09 02:31:46;;;;;;;3.07;1.70;;;16.40;99.90;;;;;;5088423;28;20647;-79
2022/08/09 02:34:16;;;;;;;2.10;1.90;;;16.30;99.90;;;;;;5089808;28;20714;-79
2022/08/09 02:36:48;;;;;;;1.80;1.63;;;16.30;99.90;;;;;;5089080;28;20640;-79
2022/08/09 02:39:19;;;;;;;3.03;1.53;;;16.30;99.90;;;;;;5082655;28;20619;-80
2022/08/09 02:41:50;;;;;;;1.70;1.60;;;16.30;99.90;;;;;;5086850;28;20773;-80
2022/08/09 02:44:23;;;;;;;1.50;1.40;;;16.30;99.90;;;;;;5092871;28;20650;-79
2022/08/09 02:46:53;;;;;;;2.13;1.60;;;16.30;99.90;;;;;;5090184;28;20872;-79
2022/08/09 02:49:20;;;;;;;2.70;2.13;;;16.20;99.90;;;;;;5088200;28;20712;-79
2022/08/09 02:51:53;;;;;;;1.83;1.67;;;16.10;99.90;;;;;;5084816;28;20662;-79
2022/08/09 02:54:22;;;;;;;4.00;1.70;;;16.10;99.90;;;;;;5083005;28;20622;-79
2022/08/09 02:56:51;;;;;;;1.90;1.70;;;16.10;99.90;;;;;;5091518;28;20628;-79
2022/08/09 02:59:22;;;;;;;1.70;1.60;;;16.10;99.90;;;;;;5088793;28;20632;-79
2022/08/09 03:01:50;;;;;;;2.77;2.57;;;16.10;99.90;;;;;;5089329;28;20654;-79
2022/08/09 03:04:18;;;;;;;2.50;1.70;;;16.10;99.90;;;;;;5085584;28;20999;-79
2022/08/09 03:06:48;;;;;;;2.10;2.00;;;16.00;99.90;;;;;;5075457;28;21195;-79
2022/08/09 03:09:16;;;;;;;2.80;1.60;;;16.00;99.90;;;;;;5091453;28;20614;-79
2022/08/09 03:11:43;;;;;;;2.43;1.87;;;16.00;99.90;;;;;;5088794;28;20681;-79
2022/08/09 03:14:11;;;;;;;2.50;2.03;;;15.90;99.90;;;;;;5086410;28;20879;-79
2022/08/09 03:16:41;;;;;;;1.90;1.80;;;15.90;99.90;;;;;;5082807;28;20632;-78
2022/08/09 03:19:09;;;;;;;1.67;1.50;;;15.80;99.90;;;;;;5090644;28;20647;-78
2022/08/09 03:21:37;;;;;;;5.67;2.10;;;15.80;99.90;;;;;;5086307;28;20655;-79
2022/08/09 03:24:04;;;;;;;2.70;1.50;;;15.80;99.90;;;;;;5086031;28;20628;-78
2022/08/09 03:26:33;;;;;;;2.80;2.00;;;15.80;99.90;;;;;;5091052;28;20635;-78
2022/08/09 03:29:01;;;;;;;2.90;2.53;;;15.80;99.90;;;;;;5092738;28;20636;-79
2022/08/09 03:31:29;;;;;;;2.60;2.00;;;15.80;99.90;;;;;;5090360;28;20666;-79
2022/08/09 03:33:58;;;;;;;2.43;1.93;;;15.70;99.90;;;;;;5086760;28;20668;-79
2022/08/09 03:36:25;;;;;;;2.93;1.60;;;15.70;99.90;;;;;;5089725;28;20630;-79
2022/08/09 03:38:52;;;;;;;2.47;2.07;;;15.70;99.90;;;;;;5074977;28;20636;-78
2022/08/09 03:41:19;;;;;;;2.03;1.83;;;15.70;99.90;;;;;;5089710;28;20780;-78
2022/08/09 03:43:46;;;;;;;4.00;2.10;;;15.70;99.90;;;;;;5080872;28;20731;-78
2022/08/09 03:46:14;;;;;;;1.83;1.70;;;15.70;99.90;;;;;;5088299;28;20627;-79
2022/08/09 03:48:42;;;;;;;1.93;1.80;;;15.60;99.90;;;;;;5087471;28;20632;-80
2022/08/09 03:51:12;;;;;;;2.00;1.90;;;15.60;99.90;;;;;;5088068;28;20652;-79
2022/08/09 03:53:40;;;;;;;2.10;1.97;;;15.60;99.90;;;;;;5084776;28;20660;-79
2022/08/09 03:56:08;;;;;;;3.00;2.30;;;15.60;99.90;;;;;;5085336;28;20633;-79
2022/08/09 03:58:35;;;;;;;2.07;1.97;;;15.60;99.90;;;;;;5086369;28;20638;-79
2022/08/09 04:01:03;;;;;;;1.73;1.63;;;15.50;99.90;;;;;;5086823;28;20659;-79
2022/08/09 04:03:30;;;;;;;2.97;1.60;;;15.50;99.90;;;;;;5089505;28;20636;-80
2022/08/09 04:05:57;;;;;;;2.80;1.93;;;15.50;99.90;;;;;;5085606;28;21043;-78
2022/08/09 04:08:25;;;;;;;2.20;1.73;;;15.50;99.90;;;;;;5090305;28;20632;-78
2022/08/09 04:10:52;;;;;;;2.17;2.00;;;15.40;99.90;;;;;;5082412;28;21029;-80
2022/08/09 04:13:19;;;;;;;3.43;2.00;;;15.50;99.90;;;;;;5091178;28;20669;-79
2022/08/09 04:15:46;;;;;;;2.57;2.27;;;15.50;99.90;;;;;;5082981;28;20659;-80
2022/08/09 04:18:13;;;;;;;2.17;2.07;;;15.50;99.90;;;;;;5091932;28;20645;-80
2022/08/09 04:20:41;;;;;;;1.90;1.80;;;15.50;99.90;;;;;;5088567;28;20734;-80
2022/08/09 04:23:08;;;;;;;2.90;2.13;;;15.40;99.90;;;;;;5086218;28;20986;-80
2022/08/09 04:25:37;;;;;;;2.03;1.80;;;15.40;99.90;;;;;;5084241;28;20627;-80
2022/08/09 04:28:04;;;;;;;3.00;2.40;;;15.50;99.90;;;;;;5076917;28;20629;-80
2022/08/09 04:30:31;;;;;;;2.00;1.90;;;15.50;99.90;;;;;;5090157;28;20718;-80
2022/08/09 04:32:59;;;;;;;3.63;2.37;;;15.50;99.90;;;;;;5083946;28;21002;-80
2022/08/09 04:35:25;;;;;;;2.73;2.53;;;15.40;99.90;;;;;;5088345;28;20619;-80
2022/08/09 04:37:52;;;;;;;1.93;1.73;;;15.50;99.90;;;;;;5080703;28;21040;-78
2022/08/09 04:40:19;;;;;;;2.50;2.30;;;15.40;99.90;;;;;;5085992;28;20627;-80
2022/08/09 04:42:47;;;;;;;2.07;1.97;;;15.50;99.90;;;;;;5090018;28;20620;-80
2022/08/09 04:45:15;;;;;;;5.10;2.20;;;15.40;99.90;;;;;;5091423;28;20645;-80
2022/08/09 04:47:42;;;;;;;5.97;2.20;;;15.50;99.90;;;;;;5086321;28;20635;-79
2022/08/09 04:50:09;;;;;;;2.30;2.20;;;15.50;99.90;;;;;;5080446;28;20647;-79
2022/08/09 04:52:36;;;;;;;5.07;1.87;;;15.50;99.90;;;;;;5075844;28;20744;-79
2022/08/09 04:55:03;;;;;;;2.37;1.70;;;15.50;99.90;;;;;;5077397;28;20636;-79
2022/08/09 04:57:30;;;;;;;2.50;2.20;;;15.50;99.90;;;;;;5088858;28;20639;-80
2022/08/09 04:59:58;;;;;;;2.77;1.80;;;15.50;99.90;;;;;;5086942;28;20632;-78
2022/08/09 05:02:25;;;;;;;2.53;2.33;;;15.40;99.90;;;;;;5082157;28;20644;-78
2022/08/09 05:04:52;;;;;;;4.50;2.20;;;15.40;99.90;;;;;;5084955;28;21182;-78
2022/08/09 05:07:18;;;;;;;2.47;2.27;;;15.40;99.90;;;;;;5085533;28;20955;-78
2022/08/09 05:09:45;;;;;;;5.10;2.07;;;15.50;99.90;;;;;;5087405;28;20978;-78
2022/08/09 05:12:12;;;;;;;5.43;2.40;;;15.60;99.90;;;;;;5086572;28;20647;-79
2022/08/09 05:14:39;;;;;;;3.70;2.37;;;15.60;99.90;;;;;;5089003;28;20659;-79
2022/08/09 05:17:07;;;;;;;6.47;2.83;;;15.60;99.90;;;;;;5082742;28;20631;-78
2022/08/09 05:19:34;;;;;;;5.87;2.57;;;15.70;99.90;;;;;;5087382;28;20634;-78
2022/08/09 05:22:01;;;;;;;3.87;2.77;;;15.80;99.90;;;;;;5087398;28;20660;-79
2022/08/09 05:24:28;;;;;;;2.83;2.60;;;15.80;99.90;;;;;;5082533;28;21464;-78
2022/08/09 05:26:54;;;;;;;4.20;3.00;;;15.90;99.90;;;;;;5082749;28;20731;-78
2022/08/09 05:29:21;;;;;;;2.73;2.40;;;16.00;99.90;;;;;;5089422;28;20634;-79
2022/08/09 05:31:48;;;;;;;3.10;2.30;;;16.00;99.90;;;;;;5082677;28;21285;-80
2022/08/09 05:34:17;;;;;;;2.70;2.50;;;16.10;99.90;;;;;;5090143;28;20670;-79
2022/08/09 05:36:44;;;;;;;2.80;2.60;;;16.20;99.90;;;;;;5083626;28;21162;-80
2022/08/09 05:39:11;;;;;;;3.03;2.70;;;16.30;99.90;;;;;;5087666;28;20633;-79
2022/08/09 05:41:37;;;;;;;3.90;2.70;;;16.40;99.90;;;;;;5083180;28;20649;-80
2022/08/09 05:44:04;;;;;;;4.50;2.53;;;16.50;99.90;;;;;;5088480;28;20617;-80
2022/08/09 05:46:31;;;;;;;3.03;2.73;;;16.40;99.90;;;;;;5085905;28;21103;-79
2022/08/09 05:48:58;;;;;;;3.73;2.93;;;16.50;99.90;;;;;;5089598;28;20623;-80
2022/08/09 05:51:26;;;;;;;3.00;2.70;;;16.60;99.90;;;;;;5086221;28;20683;-80
2022/08/09 05:53:53;;;;;;;3.33;3.00;;;16.70;99.90;;;;;;5083979;28;20667;-80
2022/08/09 05:56:20;;;;;;;5.63;3.00;;;16.80;99.90;;;;;;5090417;28;21200;-79
2022/08/09 05:58:47;;;;;;;2.70;2.50;;;17.00;99.90;;;;;;5087354;28;20619;-80
2022/08/09 06:01:14;;;;;;;7.33;3.47;;;17.00;99.90;;;;;;5093458;28;20778;-80
2022/08/09 06:03:41;;;;;;;4.37;2.70;;;17.10;99.90;;;;;;5082612;28;20623;-80
2022/08/09 06:06:08;;;;;;;3.07;2.67;;;17.20;99.90;;;;;;5091075;28;20658;-80
2022/08/09 06:08:36;;;;;;;3.10;2.90;;;17.30;99.90;;;;;;5094247;28;21151;-78
2022/08/09 06:11:03;;;;;;;3.97;2.20;;;17.40;99.90;;;;;;5088236;28;20652;-79
2022/08/09 06:13:29;;;;;;;3.40;3.10;;;17.50;99.90;;;;;;5094367;28;20656;-78
2022/08/09 06:15:56;;;;;;;6.03;3.10;;;17.60;99.90;;;;;;5091726;28;20642;-78
2022/08/09 06:18:23;;;;;;;3.10;2.80;;;17.70;99.90;;;;;;5092542;28;20626;-80
2022/08/09 06:20:50;;;;;;;3.47;2.50;;;17.90;99.90;;;;;;5086752;28;20667;-80
2022/08/09 06:23:17;;;;;;;2.77;2.57;;;18.00;99.90;;;;;;5090823;28;20655;-80
2022/08/09 06:25:45;;;;;;;4.60;3.30;;;18.10;99.90;;;;;;5088971;28;20665;-79
2022/08/09 06:28:12;;;;;;;4.20;3.50;;;18.30;99.90;;;;;;5091080;28;20708;-79
2022/08/09 06:30:39;;;;;;;10.60;4.23;;;18.40;99.90;;;;;;5092023;28;20654;-80
2022/08/09 06:33:06;;;;;;;4.53;3.20;;;18.50;99.90;;;;;;5087372;28;20636;-79
2022/08/09 06:35:33;;;;;;;2.90;2.70;;;18.60;99.90;;;;;;5092100;28;20627;-79
2022/08/09 06:37:59;;;;;;;3.63;3.00;;;18.70;99.90;;;;;;5085723;28;20702;-79
2022/08/09 06:40:27;;;;;;;3.00;2.80;;;18.80;99.90;;;;;;5088590;28;20639;-79
2022/08/09 06:42:55;;;;;;;4.30;3.00;;;18.90;99.90;;;;;;5090908;28;21197;-78
2022/08/09 06:45:22;;;;;;;8.83;3.07;;;19.00;99.90;;;;;;5088031;28;20650;-78
2022/08/09 06:47:52;;;;;;;3.17;2.87;;;19.00;99.90;;;;;;5087726;28;20648;-78
2022/08/09 06:50:20;;;;;;;5.00;3.30;;;19.10;99.90;;;;;;5078185;28;20655;-80
2022/08/09 06:52:47;;;;;;;2.93;2.67;;;19.30;99.90;;;;;;5059130;28;20633;-78
2022/08/09 06:55:15;;;;;;;3.33;2.67;;;19.40;99.90;;;;;;5093379;28;20651;-78
2022/08/09 06:57:41;;;;;;;6.80;2.40;;;19.50;99.90;;;;;;5089530;28;20648;-78
2022/08/09 07:00:11;;;;;;;4.43;3.67;;;19.60;99.90;;;;;;5089349;28;21515;-78
2022/08/09 07:02:38;;;;;;;5.43;2.70;;;19.60;99.90;;;;;;5088785;28;20715;-78
2022/08/09 07:05:06;;;;;;;3.20;2.90;;;19.80;99.90;;;;;;5082610;28;20633;-78
2022/08/09 07:07:33;;;;;;;4.27;2.90;;;19.90;99.90;;;;;;5088799;28;20627;-78
2022/08/09 07:10:00;;;;;;;6.57;3.03;;;20.00;99.90;;;;;;5082026;28;20625;-78
2022/08/09 07:12:27;;;;;;;6.53;2.93;;;20.10;99.90;;;;;;5086007;28;20976;-78
2022/08/09 07:14:54;;;;;;;2.93;2.73;;;20.30;99.90;;;;;;5084149;28;20668;-78
2022/08/09 07:17:22;;;;;;;2.93;2.60;;;20.40;99.70;;;;;;5085091;28;20638;-78
2022/08/09 07:19:49;;;;;;;3.20;2.83;;;20.60;99.50;;;;;;5085281;28;20686;-77
2022/08/09 07:22:16;;;;;;;2.80;2.60;;;20.70;99.20;;;;;;5090246;28;21240;-79
2022/08/09 07:24:43;;;;;;;2.77;2.57;;;20.90;98.70;;;;;;5084327;28;20624;-79
2022/08/09 07:27:11;;;;;;;3.13;2.33;;;21.00;98.60;;;;;;5094377;28;20621;-79
2022/08/09 07:29:38;;;;;;;3.20;2.37;;;21.10;98.10;;;;;;5091148;28;20627;-78
2022/08/09 07:32:06;;;;;;;2.37;2.20;;;21.30;97.50;;;;;;5086961;28;20636;-79
2022/08/09 07:34:34;;;;;;;2.90;2.30;;;21.40;97.20;;;;;;5090332;28;20750;-79
2022/08/09 07:37:01;;;;;;;3.20;2.50;;;21.50;96.70;;;;;;5084649;28;20629;-79
2022/08/09 07:39:28;;;;;;;2.80;2.50;;;21.60;96.30;;;;;;5090708;28;20619;-78
2022/08/09 07:41:55;;;;;;;2.67;2.17;;;21.80;95.90;;;;;;5084743;28;21256;-79
2022/08/09 07:44:22;;;;;;;3.97;2.27;;;21.90;95.00;;;;;;5089034;28;20611;-79
2022/08/09 07:46:48;;;;;;;5.47;2.40;;;22.00;94.50;;;;;;5086150;28;20760;-79
2022/08/09 07:49:15;;;;;;;2.23;2.03;;;22.20;94.20;;;;;;5078108;28;21170;-79
2022/08/09 07:51:43;;;;;;;3.20;2.13;;;22.30;94.00;;;;;;5078474;28;20677;-79
2022/08/09 07:54:10;;;;;;;2.77;2.20;;;22.40;93.80;;;;;;5084676;28;20668;-79
2022/08/09 07:56:38;;;;;;;2.00;1.90;;;22.60;93.30;;;;;;5090652;28;20702;-79
2022/08/09 07:59:06;;;;;;;3.77;2.03;;;22.70;93.10;;;;;;5086911;28;20624;-79
2022/08/09 08:01:33;;;;;;;3.27;2.00;;;22.80;92.30;;;;;;5090946;28;20683;-79
2022/08/09 08:03:59;;;;;;;2.90;2.20;;;22.90;92.00;;;;;;5080518;28;20639;-79
2022/08/09 08:06:26;;;;;;;2.27;2.00;;;23.00;91.40;;;;;;5085877;28;20718;-79
2022/08/09 08:08:54;;;;;;;2.30;2.10;;;23.00;91.20;;;;;;5089276;28;20623;-78
2022/08/09 08:11:22;;;;;;;2.87;2.03;;;23.20;91.00;;;;;;5087292;28;20648;-79
2022/08/09 08:13:48;;;;;;;2.50;1.73;;;23.30;91.00;;;;;;5081565;28;20625;-79
2022/08/09 08:16:15;;;;;;;2.87;2.13;;;23.40;90.50;;;;;;5084993;28;20637;-79
2022/08/09 08:18:42;;;;;;;2.80;1.93;;;23.50;90.10;;;;;;5087163;28;21383;-79
2022/08/09 08:21:09;;;;;;;3.20;2.20;;;23.50;90.20;;;;;;5090233;28;20656;-79
2022/08/09 08:23:36;;;;;;;5.00;2.03;;;23.60;89.60;;;;;;5083942;28;20677;-78
2022/08/09 08:26:04;;;;;;;3.20;1.90;;;23.70;89.50;;;;;;5074399;28;20616;-78
2022/08/09 08:28:31;;;;;;;3.80;1.90;;;23.90;89.00;;;;;;5071109;28;20616;-78
2022/08/09 08:30:58;;;;;;;3.80;2.40;;;23.90;88.40;;;;;;5075853;28;20654;-79
2022/08/09 08:33:26;;;;;;;2.83;2.50;;;24.10;88.80;;;;;;5084154;28;20926;-78
2022/08/09 08:35:53;;;;;;;4.13;2.10;;;24.30;88.30;;;;;;5081466;28;20664;-79
2022/08/09 08:38:19;;;;;;;2.00;1.80;;;24.30;85.00;;;;;;5087334;28;20619;-78
2022/08/09 08:40:46;;;;;;;1.90;1.80;;;24.50;83.00;;;;;;5073512;28;20649;-79
2022/08/09 08:43:15;;;;;;;3.87;2.00;;;24.60;82.70;;;;;;5087092;28;20624;-79
2022/08/09 08:45:49;;;;;;;2.30;1.63;;;24.80;83.30;;;;;;5088038;28;20636;-79
2022/08/09 08:48:17;;;;;;;2.53;1.80;;;24.90;81.60;;;;;;5082638;28;20626;-79
2022/08/09 08:50:45;;;;;;;2.80;2.40;;;25.00;80.50;;;;;;5075055;28;20652;-79
2022/08/09 08:53:13;;;;;;;10.47;9.57;;;25.10;79.70;;;;;;5071422;28;20629;-79
2022/08/09 08:55:42;;;;;;;3.70;3.40;;;25.20;79.90;;;;;;5083487;28;20676;-79
2022/08/09 08:58:10;;;;;;;4.63;2.13;;;25.20;79.10;;;;;;5084262;28;20698;-79
2022/08/09 09:00:38;;;;;;;6.40;1.77;;;25.40;77.90;;;;;;5085012;28;20648;-79
2022/08/09 09:03:05;;;;;;;1.87;1.70;;;25.40;77.70;;;;;;5080664;28;20676;-79
2022/08/09 09:05:33;;;;;;;3.73;2.43;;;25.40;76.80;;;;;;5083134;28;21080;-79
2022/08/09 09:08:02;;;;;;;2.60;2.40;;;25.60;77.00;;;;;;5067488;28;20652;-79
2022/08/09 09:10:30;;;;;;;2.43;1.80;;;25.70;76.10;;;;;;5075558;28;21185;-79
2022/08/09 09:12:57;;;;;;;1.80;1.57;;;25.70;75.20;;;;;;5083615;28;20996;-79
2022/08/09 09:15:24;;;;;;;3.73;1.83;;;25.70;74.70;;;;;;5069147;28;21304;-79
2022/08/09 09:17:53;;;;;;;1.90;1.80;;;25.80;73.70;;;;;;5081667;28;20644;-79
2022/08/09 09:20:20;;;;;;;2.13;1.73;;;25.90;74.50;;;;;;5080501;28;20631;-78
2022/08/09 09:22:51;;;;;;;6.93;2.00;;;25.90;73.10;;;;;;5072155;28;20631;-78
2022/08/09 09:25:32;;;;;;;2.27;2.10;;;26.00;74.10;;;;;;5072168;28;21504;-79
2022/08/09 09:27:59;;;;;;;2.37;2.17;;;26.10;70.60;;;;;;5081560;28;20661;-79
2022/08/09 09:30:27;;;;;;;1.87;1.77;;;26.20;70.00;;;;;;5080855;28;20631;-79
2022/08/09 09:33:09;;;;;;;2.83;1.80;;;26.30;70.80;;;;;;5079851;28;20640;-78
2022/08/09 09:35:51;;;;;;;1.60;1.50;;;26.50;70.00;;;;;;5079682;28;20671;-79
2022/08/09 09:38:20;;;;;;;2.00;1.83;;;26.60;68.00;;;;;;5083537;28;20604;-79
2022/08/09 09:40:47;;;;;;;3.57;1.90;;;26.70;67.50;;;;;;5074076;28;20652;-79
2022/08/09 09:43:19;;;;;;;2.03;1.93;;;26.70;67.30;;;;;;5071800;28;20628;-79
2022/08/09 09:45:51;;;;;;;3.53;1.80;;;26.80;66.90;;;;;;5080697;28;20616;-79
2022/08/09 09:48:21;;;;;;;2.27;1.60;;;26.90;66.00;;;;;;5087557;28;20603;-79
2022/08/09 09:50:50;;;;;;;3.37;2.00;;;27.00;66.10;;;;;;5076535;28;20652;-79
2022/08/09 09:53:19;;;;;;;6.03;1.60;;;27.10;66.10;;;;;;5077210;28;20653;-79
2022/08/09 09:55:56;;;;;;;2.00;1.80;;;27.20;65.20;;;;;;5073275;28;21191;-78
2022/08/09 09:58:23;;;;;;;4.57;1.80;;;27.30;63.70;;;;;;5076227;28;20640;-79
2022/08/09 10:00:52;;;;;;;2.23;1.90;;;27.30;64.40;;;;;;5085467;28;20653;-78
2022/08/09 10:03:41;;;;;;;5.90;2.07;;;27.40;63.20;;;;;;5070592;28;21156;-78
2022/08/09 10:06:08;;;;;;;2.30;1.70;;;27.30;63.90;;;;;;5081710;28;20625;-78
2022/08/09 10:08:35;;;;;;;2.00;1.60;;;27.20;61.30;;;;;;5083492;28;21154;-78
2022/08/09 10:11:17;;;;;;;4.47;1.90;;;27.20;61.70;;;;;;5074971;28;20644;-80
2022/08/09 10:13:44;;;;;;;5.63;4.83;;;27.30;59.60;;;;;;5084885;28;21165;-78
2022/08/09 10:16:12;;;;;;;4.83;4.20;;;27.30;59.60;;;;;;5081333;28;20664;-79
2022/08/09 10:18:50;;;;;;;3.80;3.50;;;27.30;59.50;;;;;;5084416;28;20633;-79
2022/08/09 10:21:17;;;;;;;2.10;2.00;;;27.40;59.50;;;;;;5089551;28;20675;-79
2022/08/09 10:23:44;;;;;;;3.07;1.90;;;27.50;58.80;;;;;;5082069;28;20620;-77
2022/08/09 10:26:12;;;;;;;2.47;1.70;;;27.70;60.00;;;;;;5086963;28;20686;-79
2022/08/09 10:28:41;;;;;;;1.60;1.50;;;27.80;59.60;;;;;;5085476;28;20616;-78
2022/08/09 10:31:09;;;;;;;3.13;1.77;;;27.90;58.60;;;;;;5085469;28;20660;-78
2022/08/09 10:33:36;;;;;;;2.57;2.03;;;28.10;58.20;;;;;;5084551;28;21039;-78
2022/08/09 10:36:08;;;;;;;7.87;2.03;;;28.30;58.10;;;;;;5085578;28;20664;-78
2022/08/09 10:38:35;;;;;;;2.73;2.00;;;28.50;58.00;;;;;;5082052;28;20655;-78
2022/08/09 10:41:02;;;;;;;1.80;1.70;;;28.60;57.50;;;;;;5087075;28;20681;-78
2022/08/09 10:43:30;;;;;;;4.83;1.70;;;28.80;57.10;;;;;;5082559;28;20631;-78
2022/08/09 10:46:02;;;;;;;2.50;2.30;;;29.00;55.50;;;;;;5085485;28;20959;-78
2022/08/09 10:48:35;;;;;;;1.70;1.60;;;29.20;54.70;;;;;;5083717;28;20627;-78
2022/08/09 10:51:15;;;;;;;2.67;1.83;;;29.30;53.90;;;;;;5077886;28;20644;-78
2022/08/09 10:53:54;;;;;;;3.87;1.90;;;29.50;54.00;;;;;;5090534;28;20723;-78
2022/08/09 10:56:23;;;;;;;1.73;1.63;;;29.60;54.10;;;;;;5086898;28;20669;-78
2022/08/09 10:58:53;;;;;;;2.00;1.90;;;29.90;53.20;;;;;;5081208;28;20628;-78
2022/08/09 11:01:42;;;;;;;3.00;1.80;;;30.10;53.70;;;;;;5088807;28;20643;-78
2022/08/09 11:04:14;;;;;;;2.23;1.60;;;30.40;51.60;;;;;;5085244;28;20658;-78
2022/08/09 11:06:45;;;;;;;1.80;1.70;;;30.70;51.90;;;;;;5081363;28;20647;-78
2022/08/09 11:09:18;;;;;;;1.77;1.63;;;30.90;50.40;;;;;;5092024;28;20693;-77
2022/08/09 11:12:12;;;;;;;2.60;1.70;;;31.10;48.10;;;;;;5086173;28;20651;-77
2022/08/09 11:14:43;;;;;;;2.13;1.77;;;31.20;47.80;;;;;;5043676;28;20734;-78
2022/08/09 11:17:50;;;;;;;6.43;1.80;;;31.60;47.20;;;;;;5083885;28;20632;-77
2022/08/09 11:20:18;;;;;;;1.60;1.50;;;31.80;45.50;;;;;;5084970;28;21094;-77
2022/08/09 11:23:02;;;;;;;3.23;1.80;;;32.00;45.40;;;;;;5079847;28;20739;-77
2022/08/09 11:25:40;;;;;;;2.40;1.53;;;32.10;44.60;;;;;;5074491;28;20641;-80
2022/08/09 11:28:34;;;;;;;4.20;1.80;;;31.80;42.50;;;;;;5070930;28;20682;-77
2022/08/09 11:31:02;;;;;;;5.87;2.20;;;31.80;43.50;;;;;;5084817;28;21026;-77
2022/08/09 11:33:41;;;;;;;2.40;1.70;;;31.90;43.00;;;;;;5077767;28;20639;-77
2022/08/09 11:36:09;;;;;;;1.63;1.53;;;32.20;43.20;;;;;;5072858;28;20770;-77
2022/08/09 11:38:41;;;;;;;2.50;1.50;;;32.50;42.30;;;;;;5081388;28;20762;-77
2022/08/09 11:41:28;;;;;;;2.83;1.87;;;32.70;41.20;;;;;;5085206;28;20659;-77
2022/08/09 11:43:55;;;;;;;2.20;1.90;;;33.00;41.90;;;;;;5078170;28;21036;-78
2022/08/09 11:46:22;;;;;;;1.73;1.33;;;33.40;41.60;;;;;;5069658;28;20989;-77
2022/08/09 11:48:50;;;;;;;2.40;1.43;;;33.70;38.80;;;;;;5083953;28;20673;-77
2022/08/09 11:51:18;;;;;;;1.57;1.27;;;33.90;39.30;;;;;;5072717;28;20742;-78
2022/08/09 11:53:46;;;;;;;2.60;1.70;;;34.20;39.60;;;;;;5078733;28;20639;-77
2022/08/09 11:56:26;;;;;;;1.73;1.63;;;34.40;38.70;;;;;;5081814;28;21480;-78
2022/08/09 11:58:54;;;;;;;1.80;1.70;;;34.70;38.50;;;;;;5093433;28;20642;-78
2022/08/09 12:01:33;;;;;;;1.77;1.67;;;34.90;38.40;;;;;;5090524;28;20650;-78
2022/08/09 12:04:01;;;;;;;1.90;1.73;;;34.90;37.50;;;;;;5060823;28;20620;-78
2022/08/09 12:06:29;;;;;;;3.23;1.70;;;34.70;37.70;;;;;;5083091;28;20625;-78
2022/08/09 12:08:57;;;;;;;1.80;1.70;;;34.90;38.80;;;;;;5077246;28;20636;-78
2022/08/09 12:11:27;;;;;;;1.90;1.50;;;35.40;37.50;;;;;;5069145;28;21273;-78
2022/08/09 12:13:55;;;;;;;1.50;1.40;;;35.50;37.50;;;;;;5078404;28;20619;-78
2022/08/09 12:16:24;;;;;;;1.83;1.63;;;35.50;37.10;;;;;;5077775;28;20955;-77
2022/08/09 12:18:52;;;;;;;7.53;1.80;;;35.50;37.60;;;;;;5085695;28;20631;-78
2022/08/09 12:21:28;;;;;;;6.30;2.30;;;35.60;36.90;;;;;;5086661;28;20661;-78
2022/08/09 12:24:00;;;;;;;2.10;1.40;;;35.70;37.70;;;;;;5082004;28;20727;-78
2022/08/09 12:26:38;;;;;;;1.87;1.70;;;36.00;37.20;;;;;;5085015;28;21090;-78
2022/08/09 12:29:05;;;;;;;4.20;1.50;;;36.50;36.50;;;;;;5084907;28;20623;-78
2022/08/09 12:31:32;;;;;;;3.83;1.73;;;36.60;35.60;;;;;;5076069;28;20222;-78
2022/08/09 12:33:59;;;;;;;2.97;1.87;;;36.70;36.10;;;;;;5069737;28;20205;-78
2022/08/09 12:36:27;;;;;;;2.80;1.87;;;37.00;36.40;;;;;;5078260;28;20221;-78
2022/08/09 12:38:54;;;;;;;4.78;1.83;;;37.20;35.10;;;;;;5084373;28;20242;-78
2022/08/09 12:41:27;;;;;;;1.52;1.40;;;37.60;35.40;;;;;;5082101;28;20221;-78
2022/08/09 12:43:55;;;;;;;1.83;1.60;;;37.80;33.80;;;;;;5086096;28;20284;-78
2022/08/09 12:46:23;;;;;;;2.15;1.95;;;38.00;33.60;;;;;;5074196;28;20237;-78
2022/08/09 12:48:51;;;;;;;2.70;1.25;;;37.80;33.10;;;;;;5077832;28;20284;-78
2022/08/09 12:51:19;;;;;;;3.85;1.60;;;38.00;33.50;;;;;;5073859;28;20218;-78
2022/08/09 12:53:45;;;;;;;1.80;1.70;;;38.30;32.00;;;;;;5077788;28;20565;-78
2022/08/09 12:56:14;;;;;;;5.70;1.70;;;38.50;31.50;;;;;;5084651;28;20261;-78
2022/08/09 12:59:07;;;;;;;2.42;1.50;;;38.20;31.10;;;;;;5082867;28;20216;-78
2022/08/09 13:01:34;;;;;;;1.33;1.23;;;37.80;31.10;;;;;;5085008;28;20249;-78